2VG6 weather

Rychlk Heliport
Manassas, Virginia, United States

Public forecast

Using degrees Fahrenheit for public forecast. Weather courtesy of forecast.io.

METAR (pilot weather report)

Closest report is Manassas Regional Airport/Harry P. Davis Field, 5.9 nm (10.8 km) ESE. Retrieved 2019/05/19 12:56 UTC (54 minutes ago):

KHEF 191256Z 17004KT 10SM BR OVC009 21/19 A3003 RMK AO2 SLP178 T02110194 PNO $

TAF (pilot weather forecast)

Closest forecast is Washington Dulles International Airport, 13.7 nm (25.4 km) NE. Retrieved 2019/05/19 12:40 UTC (1 hour ago):

TAF KIAD 191138Z 1912/2018 VRB03KT P6SM OVC015 FM191400 18005KT P6SM SCT025 FM192000 19010G20KT P6SM VCTS SCT060CB FM200300 18009KT P6SM SCT060 FM201100 21007KT P6SM BKN250 FM201500 23010G19KT P6SM BKN050